sensor_id;sensor_type;location;lat;lon;timestamp;pressure;altitude;pressure_sealevel;temperature;humidity
69926;BME280;57217;47.286;8.530;2024-03-25T00:01:46;94785.41;;;3.33;100.00
69926;BME280;57217;47.286;8.530;2024-03-25T00:31:48;94764.50;;;3.33;100.00
69926;BME280;57217;47.286;8.530;2024-03-25T01:01:50;94728.31;;;3.05;100.00
69926;BME280;57217;47.286;8.530;2024-03-25T01:31:53;94724.81;;;3.24;100.00
69926;BME280;57217;47.286;8.530;2024-03-25T02:01:56;94694.13;;;2.87;100.00
69926;BME280;57217;47.286;8.530;2024-03-25T02:31:59;94662.09;;;2.91;100.00
69926;BME280;57217;47.286;8.530;2024-03-25T03:02:01;94658.59;;;3.09;100.00
69926;BME280;57217;47.286;8.530;2024-03-25T03:32:04;94632.19;;;3.14;100.00
69926;BME280;57217;47.286;8.530;2024-03-25T04:02:07;94615.28;;;3.05;100.00
69926;BME280;57217;47.286;8.530;2024-03-25T04:32:11;94612.59;;;2.45;100.00
69926;BME280;57217;47.286;8.530;2024-03-25T05:02:13;94592.78;;;1.91;100.00
69926;BME280;57217;47.286;8.530;2024-03-25T05:32:16;94585.25;;;1.44;100.00
69926;BME280;57217;47.286;8.530;2024-03-25T06:02:23;94575.00;;;1.74;100.00
69926;BME280;57217;47.286;8.530;2024-03-25T06:32:26;94548.19;;;2.75;100.00
69926;BME280;57217;47.286;8.530;2024-03-25T07:02:47;94515.53;;;4.14;100.00
69926;BME280;57217;47.286;8.530;2024-03-25T07:32:49;94493.63;;;5.41;100.00
69926;BME280;57217;47.286;8.530;2024-03-25T08:02:51;94462.31;;;6.96;89.99
69926;BME280;57217;47.286;8.530;2024-03-25T08:32:53;94432.00;;;8.29;75.28
69926;BME280;57217;47.286;8.530;2024-03-25T09:02:56;94399.06;;;8.82;61.86
69926;BME280;57217;47.286;8.530;2024-03-25T09:32:58;94358.78;;;9.58;62.02
69926;BME280;57217;47.286;8.530;2024-03-25T10:03:01;94321.09;;;10.21;59.27
69926;BME280;57217;47.286;8.530;2024-03-25T10:33:04;94279.84;;;10.27;58.87
69926;BME280;57217;47.286;8.530;2024-03-25T11:03:07;94235.50;;;11.20;55.66
69926;BME280;57217;47.286;8.530;2024-03-25T11:33:10;94147.06;;;12.55;53.14
69926;BME280;57217;47.286;8.530;2024-03-25T12:03:13;94114.25;;;13.08;48.12
69926;BME280;57217;47.286;8.530;2024-03-25T12:33:18;94048.19;;;14.34;48.97
69926;BME280;57217;47.286;8.530;2024-03-25T13:03:22;93979.81;;;14.35;45.67
69926;BME280;57217;47.286;8.530;2024-03-25T13:33:25;93925.47;;;14.36;44.40
69926;BME280;57217;47.286;8.530;2024-03-25T14:03:27;93861.00;;;15.86;38.08
69926;BME280;57217;47.286;8.530;2024-03-25T14:33:29;93812.69;;;20.24;29.87
69926;BME280;57217;47.286;8.530;2024-03-25T15:03:31;93773.78;;;14.58;42.10
69926;BME280;57217;47.286;8.530;2024-03-25T15:33:34;93725.56;;;14.65;41.71
69926;BME280;57217;47.286;8.530;2024-03-25T16:03:36;93692.59;;;21.08;31.86
69926;BME280;57217;47.286;8.530;2024-03-25T16:33:39;93649.84;;;14.84;42.41
69926;BME280;57217;47.286;8.530;2024-03-25T17:03:42;93637.56;;;12.10;47.67
69926;BME280;57217;47.286;8.530;2024-03-25T17:33:44;93620.16;;;10.35;58.95
69926;BME280;57217;47.286;8.530;2024-03-25T18:03:47;93607.88;;;9.10;61.48
69926;BME280;57217;47.286;8.530;2024-03-25T18:33:49;93583.91;;;8.30;65.62
69926;BME280;57217;47.286;8.530;2024-03-25T19:03:51;93563.41;;;7.57;68.44
69926;BME280;57217;47.286;8.530;2024-03-25T19:33:53;93551.97;;;6.91;73.22
69926;BME280;57217;47.286;8.530;2024-03-25T20:03:56;93511.03;;;6.34;74.99
69926;BME280;57217;47.286;8.530;2024-03-25T20:33:58;93456.88;;;6.01;80.10
69926;BME280;57217;47.286;8.530;2024-03-25T21:04:03;93430.56;;;6.08;82.11
69926;BME280;57217;47.286;8.530;2024-03-25T21:34:05;93440.66;;;6.06;79.41
69926;BME280;57217;47.286;8.530;2024-03-25T22:04:07;93449.34;;;6.03;77.39
69926;BME280;57217;47.286;8.530;2024-03-25T22:34:09;93437.31;;;6.05;66.32
69926;BME280;57217;47.286;8.530;2024-03-25T23:04:12;93431.06;;;5.76;69.84
69926;BME280;57217;47.286;8.530;2024-03-25T23:34:14;93432.91;;;5.56;73.68
